Time;durP1;ratioP1;P1;durP2;ratioP2;P2;SDS_P1;SDS_P2;PMS_P1;PMS_P2;Temp;Humidity;BMP_temperature;BMP_pressure;BME280_temperature;BME280_humidity;BME280_pressure;Samples;Min_cycle;Max_cycle;Signal;HPM_P1;HPM_P2
2023/07/31 00:02:22;;;;;;;2.03;1.40;;;;;;;;;;4950470;28;20126;-37
2023/07/31 00:04:48;;;;;;;2.85;1.42;;;21.70;81.80;;;;;;4965449;28;20047;-40
2023/07/31 00:07:15;;;;;;;2.25;1.40;;;20.90;81.60;;;;;;4970068;28;20134;-39
2023/07/31 00:09:42;;;;;;;5.95;1.20;;;21.00;71.40;;;;;;4969975;28;20086;-36
2023/07/31 00:12:10;;;;;;;1.90;1.45;;;22.00;82.10;;;;;;4969563;28;20579;-40
2023/07/31 00:14:37;;;;;;;2.85;1.50;;;20.50;82.00;;;;;;4969767;28;20126;-39
2023/07/31 00:17:04;;;;;;;2.17;1.30;;;;;;;;;;4954954;28;20521;-35
2023/07/31 00:19:31;;;;;;;2.35;1.30;;;21.50;81.50;;;;;;4950395;28;20564;-38
2023/07/31 00:21:58;;;;;;;1.73;1.20;;;;;;;;;;4950659;28;20142;-38
2023/07/31 00:24:25;;;;;;;2.20;1.42;;;21.00;81.60;;;;;;4950459;28;20130;-40
2023/07/31 00:26:51;;;;;;;2.60;1.50;;;20.90;81.20;;;;;;4950288;28;20479;-39
2023/07/31 00:29:19;;;;;;;1.83;1.40;;;21.40;81.80;;;;;;4950403;28;20143;-39
2023/07/31 00:31:46;;;;;;;2.28;1.40;;;;;;;;;;4950240;28;20143;-36
2023/07/31 00:34:13;;;;;;;1.90;1.30;;;21.50;81.50;;;;;;4953981;28;20129;-38
2023/07/31 00:36:40;;;;;;;2.35;1.40;;;;;;;;;;4957201;28;20057;-40
2023/07/31 00:39:07;;;;;;;2.50;1.30;;;21.60;79.20;;;;;;4972831;28;20050;-39
2023/07/31 00:41:34;;;;;;;3.35;1.40;;;21.50;81.60;;;;;;4972882;28;20055;-39
2023/07/31 00:44:00;;;;;;;2.00;1.40;;;20.70;81.20;;;;;;4957023;28;20126;-39
2023/07/31 00:46:28;;;;;;;2.10;1.30;;;21.10;65.90;;;;;;4953481;28;20393;-36
2023/07/31 00:48:55;;;;;;;3.22;1.42;;;21.50;72.70;;;;;;4954584;28;20130;-38
2023/07/31 00:51:22;;;;;;;3.15;1.52;;;20.40;81.00;;;;;;4953834;28;20146;-39
2023/07/31 00:53:48;;;;;;;2.00;1.40;;;21.00;77.30;;;;;;4972446;28;20130;-39
2023/07/31 00:56:15;;;;;;;2.50;1.45;;;22.30;69.20;;;;;;4972764;28;20138;-35
2023/07/31 00:58:42;;;;;;;1.95;1.35;;;20.70;81.70;;;;;;4972519;28;20154;-38
2023/07/31 01:01:09;;;;;;;2.58;1.40;;;22.10;82.10;;;;;;4972456;28;20055;-38
2023/07/31 01:03:37;;;;;;;1.85;1.40;;;21.20;65.90;;;;;;4972231;28;20043;-35
2023/07/31 01:06:10;;;;;;;2.03;1.35;;;21.20;66.00;;;;;;4972635;28;20134;-38
2023/07/31 01:08:41;;;;;;;1.60;1.25;;;21.30;69.50;;;;;;4972561;28;20051;-40
2023/07/31 01:11:11;;;;;;;1.83;1.25;;;20.50;65.60;;;;;;4972228;28;20138;-39
2023/07/31 01:13:38;;;;;;;2.13;1.20;;;;;;;;;;4972334;28;20058;-38
2023/07/31 01:16:05;;;;;;;2.10;1.40;;;21.30;82.00;;;;;;4971723;28;20519;-40
2023/07/31 01:18:32;;;;;;;1.98;1.27;;;;;;;;;;4972358;28;20130;-37
2023/07/31 01:21:05;;;;;;;2.63;1.30;;;21.60;81.80;;;;;;4972307;28;20130;-39
2023/07/31 01:23:46;;;;;;;1.55;1.35;;;20.00;66.30;;;;;;4972332;28;20069;-37
2023/07/31 01:26:17;;;;;;;2.42;1.42;;;21.00;81.60;;;;;;4972223;28;20125;-37
2023/07/31 01:28:47;;;;;;;2.17;1.35;;;21.50;81.90;;;;;;4972184;28;20089;-38
2023/07/31 01:31:17;;;;;;;1.67;1.30;;;22.10;66.60;;;;;;4963540;28;20508;-37
2023/07/31 01:33:44;;;;;;;1.60;1.20;;;;;;;;;;4952532;28;20051;-38
2023/07/31 01:36:11;;;;;;;1.70;1.35;;;20.90;81.50;;;;;;4955107;28;20050;-40
2023/07/31 01:38:38;;;;;;;3.08;1.42;;;21.00;70.70;;;;;;4972250;28;20055;-41
2023/07/31 01:41:04;;;;;;;1.80;1.40;;;20.80;67.60;;;;;;4952906;28;20133;-38
2023/07/31 01:43:32;;;;;;;1.75;1.30;;;20.60;81.60;;;;;;4952212;28;20611;-40
2023/07/31 01:46:00;;;;;;;2.00;1.30;;;;;;;;;;4959826;28;20057;-40
2023/07/31 01:48:26;;;;;;;1.95;1.35;;;21.50;81.70;;;;;;4970747;28;20122;-39
2023/07/31 01:50:53;;;;;;;1.80;1.20;;;21.20;74.20;;;;;;4971788;28;20468;-39
2023/07/31 01:53:20;;;;;;;2.50;1.40;;;22.00;69.00;;;;;;4971584;28;20137;-37
2023/07/31 01:55:46;;;;;;;1.45;1.17;;;21.20;82.30;;;;;;4971882;28;20156;-39
2023/07/31 01:58:13;;;;;;;1.40;1.20;;;20.80;68.40;;;;;;4971733;28;20057;-37
2023/07/31 02:00:41;;;;;;;1.70;1.38;;;21.20;75.60;;;;;;4971692;28;20456;-41
2023/07/31 02:03:08;;;;;;;1.63;1.30;;;21.10;81.40;;;;;;4969966;28;20138;-38
2023/07/31 02:05:34;;;;;;;1.30;1.20;;;21.20;81.60;;;;;;4952545;28;20468;-40
2023/07/31 02:08:01;;;;;;;1.88;1.20;;;;;;;;;;4952264;28;20137;-36
2023/07/31 02:10:29;;;;;;;1.52;1.15;;;;;;;;;;4952474;28;20141;-40
2023/07/31 02:12:56;;;;;;;1.80;1.23;;;;;;;;;;4952152;28;20146;-35
2023/07/31 02:15:22;;;;;;;1.88;1.20;;;22.00;82.80;;;;;;4952089;28;20061;-40
2023/07/31 02:17:50;;;;;;;1.83;1.20;;;21.00;81.90;;;;;;4952119;28;20134;-39
2023/07/31 02:20:17;;;;;;;1.70;1.17;;;21.10;81.60;;;;;;4957206;28;20053;-40
2023/07/31 02:22:44;;;;;;;1.60;1.10;;;;;;;;;;4971318;28;20055;-37
2023/07/31 02:25:11;;;;;;;1.90;1.38;;;20.20;81.20;;;;;;4971477;28;20077;-39
2023/07/31 02:27:37;;;;;;;4.38;1.00;;;21.20;81.80;;;;;;4971234;28;20051;-40
2023/07/31 02:30:05;;;;;;;3.20;1.38;;;20.80;73.70;;;;;;4971159;28;20591;-39
2023/07/31 02:32:31;;;;;;;1.90;1.30;;;20.60;82.30;;;;;;4970885;28;20489;-40
2023/07/31 02:34:59;;;;;;;2.13;1.10;;;21.00;66.10;;;;;;4967859;28;20127;-35
2023/07/31 02:37:28;;;;;;;2.35;1.17;;;;;;;;;;4952678;28;20427;-37
2023/07/31 02:39:55;;;;;;;1.55;1.10;;;20.80;81.10;;;;;;4951667;28;20134;-40
2023/07/31 02:42:21;;;;;;;1.55;1.00;;;21.10;82.50;;;;;;4951376;28;20055;-40
2023/07/31 02:44:51;;;;;;;1.52;1.20;;;;;;;;;;4951779;28;20078;-36
2023/07/31 02:47:17;;;;;;;1.13;0.93;;;20.90;81.50;;;;;;4969168;28;20065;-38
2023/07/31 02:49:44;;;;;;;1.27;1.00;;;20.70;81.50;;;;;;4971120;28;20392;-40
2023/07/31 02:52:12;;;;;;;1.23;1.00;;;21.60;73.80;;;;;;4970847;28;20054;-38
2023/07/31 02:54:39;;;;;;;1.48;1.00;;;20.20;72.20;;;;;;4955460;28;20134;-39
2023/07/31 02:57:06;;;;;;;1.40;1.02;;;21.50;82.70;;;;;;4951405;28;20069;-39
2023/07/31 02:59:33;;;;;;;1.00;0.80;;;;;;;;;;4950565;28;20134;-37
2023/07/31 03:02:00;;;;;;;1.65;1.10;;;20.40;81.40;;;;;;4951735;28;20128;-40
2023/07/31 03:04:26;;;;;;;1.95;1.00;;;20.10;81.70;;;;;;4951547;28;20043;-40
2023/07/31 03:06:53;;;;;;;1.27;0.93;;;20.80;68.90;;;;;;4951564;28;20047;-39
2023/07/31 03:09:21;;;;;;;1.20;1.00;;;21.10;81.70;;;;;;4951970;28;20134;-38
2023/07/31 03:11:48;;;;;;;1.25;1.08;;;21.20;82.50;;;;;;4951225;28;20051;-41
2023/07/31 03:14:14;;;;;;;1.05;0.95;;;21.30;82.70;;;;;;4951032;28;20051;-40
2023/07/31 03:16:42;;;;;;;1.55;0.98;;;;;;;;;;4951346;28;20142;-35
2023/07/31 03:19:08;;;;;;;1.08;0.90;;;20.90;82.40;;;;;;4951268;28;20138;-40
2023/07/31 03:21:35;;;;;;;1.13;0.80;;;20.00;81.40;;;;;;4951316;28;20051;-38
2023/07/31 03:24:02;;;;;;;1.23;0.80;;;;;;;;;;4953794;28;20061;-37
2023/07/31 03:26:32;;;;;;;1.65;0.90;;;21.20;82.70;;;;;;4968774;28;20050;-40
2023/07/31 03:28:59;;;;;;;1.77;1.00;;;;;;;;;;4970395;28;20137;-39
2023/07/31 03:31:26;;;;;;;1.30;1.00;;;;;;;;;;4965781;28;20164;-36
2023/07/31 03:33:53;;;;;;;1.88;0.88;;;20.90;82.40;;;;;;4951097;28;20081;-40
2023/07/31 03:36:20;;;;;;;0.80;0.80;;;20.80;81.60;;;;;;4954962;28;20604;-40
2023/07/31 03:38:47;;;;;;;1.55;1.10;;;20.90;72.40;;;;;;4970029;28;20134;-40
2023/07/31 03:41:14;;;;;;;1.02;0.90;;;20.80;68.30;;;;;;4970378;28;20138;-39
2023/07/31 03:43:42;;;;;;;1.58;0.80;;;20.90;66.10;;;;;;4960218;28;20062;-40
2023/07/31 03:46:08;;;;;;;1.25;0.90;;;20.90;68.00;;;;;;4957149;28;20077;-37
2023/07/31 03:48:36;;;;;;;0.88;0.88;;;;;;;;;;4969405;28;20575;-37
2023/07/31 03:51:03;;;;;;;0.88;0.80;;;;;;;;;;4969239;28;20138;-37
2023/07/31 03:53:29;;;;;;;0.95;0.82;;;20.90;81.70;;;;;;4969285;28;20089;-39
2023/07/31 03:55:56;;;;;;;0.93;0.80;;;21.10;81.90;;;;;;4969186;28;20150;-40
2023/07/31 03:58:23;;;;;;;1.20;0.93;;;20.00;68.40;;;;;;4963166;28;20130;-39
2023/07/31 04:00:51;;;;;;;1.27;0.90;;;20.80;81.70;;;;;;4959818;28;20129;-41
2023/07/31 04:03:18;;;;;;;0.60;0.60;;;;;;;;;;4959312;28;20145;-37
2023/07/31 04:05:45;;;;;;;1.38;1.08;;;;;;;;;;4960592;28;20129;-36
2023/07/31 04:08:12;;;;;;;2.08;1.00;;;20.90;82.10;;;;;;4958500;28;20122;-40
2023/07/31 04:10:39;;;;;;;1.02;0.93;;;;;;;;;;4959760;28;20498;-39
2023/07/31 04:13:06;;;;;;;0.95;0.80;;;19.90;81.30;;;;;;4963400;28;20126;-39
2023/07/31 04:15:32;;;;;;;1.02;0.90;;;21.20;83.00;;;;;;4961422;28;20118;-39
2023/07/31 04:18:01;;;;;;;1.23;1.13;;;21.10;66.40;;;;;;4963626;28;20078;-38
2023/07/31 04:20:28;;;;;;;1.13;0.82;;;;;;;;;;4961276;28;20150;-35
2023/07/31 04:22:54;;;;;;;0.93;0.75;;;20.50;82.50;;;;;;4962847;28;20122;-40
2023/07/31 04:25:21;;;;;;;0.77;0.77;;;21.60;71.20;;;;;;4963150;28;20611;-38
2023/07/31 04:27:48;;;;;;;0.88;0.80;;;20.80;68.70;;;;;;4958440;28;20081;-38
2023/07/31 04:30:15;;;;;;;0.98;0.88;;;19.90;81.30;;;;;;4961831;28;20122;-40
2023/07/31 04:32:42;;;;;;;1.25;0.80;;;;;;;;;;4962372;28;20551;-38
2023/07/31 04:35:10;;;;;;;0.90;0.80;;;20.90;66.30;;;;;;4960917;28;20511;-38
2023/07/31 04:37:38;;;;;;;0.93;0.77;;;20.60;81.80;;;;;;4972144;28;20142;-40
2023/07/31 04:40:05;;;;;;;1.80;0.90;;;21.90;82.60;;;;;;4972902;28;20047;-38
2023/07/31 04:42:32;;;;;;;1.95;1.02;;;21.10;71.00;;;;;;4972929;28;20197;-39
2023/07/31 04:44:59;;;;;;;0.70;0.70;;;21.00;82.10;;;;;;4972577;28;20134;-40
2023/07/31 04:47:25;;;;;;;2.15;0.88;;;21.50;82.40;;;;;;4954069;28;20556;-39
2023/07/31 04:49:53;;;;;;;1.42;0.90;;;20.90;73.70;;;;;;4954453;28;20142;-41
2023/07/31 04:52:21;;;;;;;1.60;1.00;;;20.50;81.80;;;;;;4953152;28;20584;-40
2023/07/31 04:54:48;;;;;;;1.35;0.80;;;21.60;75.50;;;;;;4953616;28;20130;-40
2023/07/31 04:57:15;;;;;;;1.70;0.95;;;21.10;80.20;;;;;;4953257;28;20146;-41
2023/07/31 04:59:42;;;;;;;1.00;0.90;;;21.50;82.30;;;;;;4953396;28;20143;-40
2023/07/31 05:02:09;;;;;;;0.95;0.85;;;21.00;82.20;;;;;;4953160;28;20592;-40
2023/07/31 05:04:35;;;;;;;0.70;0.68;;;20.30;82.40;;;;;;4953353;28;20134;-41
2023/07/31 05:07:02;;;;;;;1.20;0.90;;;21.10;69.40;;;;;;4971148;28;20145;-41
2023/07/31 05:09:30;;;;;;;0.65;0.60;;;20.90;66.30;;;;;;4972450;28;20129;-36
2023/07/31 05:11:57;;;;;;;1.00;0.82;;;;;;;;;;4972303;28;20125;-37
2023/07/31 05:14:24;;;;;;;1.02;0.88;;;21.30;82.30;;;;;;4972271;28;20130;-38
2023/07/31 05:16:51;;;;;;;0.98;0.68;;;;;;;;;;4972405;28;20054;-35
2023/07/31 05:19:18;;;;;;;3.85;0.85;;;;;;;;;;4972287;28;20130;-33
2023/07/31 05:21:45;;;;;;;1.10;0.90;;;;;;;;;;4972271;28;20126;-37
2023/07/31 05:24:12;;;;;;;1.10;0.90;;;20.90;82.60;;;;;;4964380;28;20154;-33
2023/07/31 05:26:40;;;;;;;1.50;0.80;;;20.80;82.50;;;;;;4953047;28;20568;-33
2023/07/31 05:29:07;;;;;;;1.17;0.85;;;20.40;82.70;;;;;;4952949;28;20057;-33
2023/07/31 05:31:34;;;;;;;0.70;0.70;;;20.70;69.50;;;;;;4952636;28;20163;-35
2023/07/31 05:34:01;;;;;;;0.80;0.80;;;20.60;82.50;;;;;;4952660;28;20055;-36
2023/07/31 05:36:28;;;;;;;0.63;0.55;;;;;;;;;;4958613;28;20527;-36
2023/07/31 05:38:54;;;;;;;1.02;0.77;;;20.00;82.60;;;;;;4971800;28;20054;-33
2023/07/31 05:41:21;;;;;;;0.93;0.82;;;21.20;83.20;;;;;;4972013;28;20138;-34
2023/07/31 05:43:49;;;;;;;0.85;0.80;;;21.70;66.80;;;;;;4971743;28;20491;-34
2023/07/31 05:46:16;;;;;;;1.60;0.90;;;;;;;;;;4962464;28;20128;-37
2023/07/31 05:48:43;;;;;;;1.35;1.00;;;20.60;82.00;;;;;;4952764;28;20134;-34
2023/07/31 05:51:10;;;;;;;1.00;0.70;;;21.00;83.10;;;;;;4961317;28;20640;-33
2023/07/31 05:53:40;;;;;;;0.90;0.70;;;20.80;72.30;;;;;;4970892;28;20130;-33
2023/07/31 05:56:07;;;;;;;1.08;1.00;;;;;;;;;;4971803;28;20051;-35
2023/07/31 05:58:34;;;;;;;0.60;0.60;;;19.90;81.80;;;;;;4971639;28;20051;-32
2023/07/31 06:01:02;;;;;;;0.70;0.70;;;20.70;79.30;;;;;;4971764;28;20435;-37
2023/07/31 06:03:30;;;;;;;0.80;0.80;;;;;;;;;;4971589;28;20133;-37
2023/07/31 06:05:57;;;;;;;0.98;0.70;;;21.10;71.00;;;;;;4956571;28;20051;-37
2023/07/31 06:08:23;;;;;;;1.27;0.70;;;21.10;78.40;;;;;;4952152;29;20108;-33
2023/07/31 06:10:50;;;;;;;1.13;0.70;;;20.80;83.20;;;;;;4952425;29;20134;-35
2023/07/31 06:13:17;;;;;;;1.20;0.80;;;;;;;;;;4952069;29;20130;-37
2023/07/31 06:15:44;;;;;;;1.23;0.70;;;21.20;83.30;;;;;;4952420;29;20130;-33
2023/07/31 06:18:12;;;;;;;0.68;0.65;;;20.10;82.20;;;;;;4952349;29;20052;-35
2023/07/31 06:20:40;;;;;;;0.85;0.70;;;;;;;;;;4959739;28;20061;-37
2023/07/31 06:23:07;;;;;;;0.77;0.70;;;20.90;68.60;;;;;;4952792;28;20606;-35
2023/07/31 06:25:33;;;;;;;1.40;1.05;;;19.80;73.70;;;;;;4951988;28;20539;-35
2023/07/31 06:28:00;;;;;;;1.35;0.82;;;20.40;82.60;;;;;;4951982;28;20051;-34
2023/07/31 06:30:27;;;;;;;1.20;0.88;;;21.00;82.60;;;;;;4951726;28;20135;-33
2023/07/31 06:32:54;;;;;;;1.58;0.93;;;;;;;;;;4951935;28;20074;-35
2023/07/31 06:35:22;;;;;;;1.58;1.20;;;21.20;82.70;;;;;;4950826;28;20054;-32
2023/07/31 06:37:50;;;;;;;1.30;0.90;;;21.50;83.30;;;;;;4965401;28;20055;-34
2023/07/31 06:40:17;;;;;;;1.70;1.10;;;21.80;77.40;;;;;;4951815;28;20051;-34
2023/07/31 06:42:43;;;;;;;1.60;1.02;;;21.10;82.60;;;;;;4951571;28;20743;-33
2023/07/31 06:45:11;;;;;;;2.30;1.13;;;20.60;72.50;;;;;;4952542;28;20134;-35
2023/07/31 06:47:38;;;;;;;1.90;1.10;;;;;;;;;;4954653;28;20496;-36
2023/07/31 06:50:06;;;;;;;1.58;1.10;;;20.80;66.70;;;;;;4951476;28;20556;-33
2023/07/31 06:52:34;;;;;;;2.30;1.45;;;20.80;66.70;;;;;;4951392;28;20134;-36
2023/07/31 06:55:02;;;;;;;3.10;1.38;;;19.80;67.00;;;;;;4954610;28;20043;-34
2023/07/31 06:57:29;;;;;;;4.70;1.88;;;;;;;;;;4968118;28;20061;-35
2023/07/31 06:59:56;;;;;;;2.38;1.45;;;20.60;82.50;;;;;;4956634;28;20052;-34
2023/07/31 07:02:23;;;;;;;3.75;1.52;;;;;;;;;;4960725;28;20500;-36
2023/07/31 07:04:50;;;;;;;3.38;1.58;;;21.30;83.00;;;;;;4970833;28;20137;-33
2023/07/31 07:07:17;;;;;;;3.08;1.42;;;21.20;77.20;;;;;;4970508;28;20051;-36
2023/07/31 07:09:45;;;;;;;2.25;1.40;;;20.60;82.50;;;;;;4970608;28;20151;-34
2023/07/31 07:12:11;;;;;;;2.20;1.48;;;20.70;83.00;;;;;;4969760;28;20121;-33
2023/07/31 07:14:38;;;;;;;2.75;1.38;;;20.70;69.70;;;;;;4954101;28;20126;-33
2023/07/31 07:17:06;;;;;;;2.15;1.35;;;21.60;70.60;;;;;;4961388;28;20130;-34
2023/07/31 07:19:32;;;;;;;5.22;1.50;;;21.20;82.80;;;;;;4970324;28;20055;-33
2023/07/31 07:22:01;;;;;;;2.85;1.60;;;20.70;72.30;;;;;;4970441;28;20126;-35
2023/07/31 07:24:27;;;;;;;2.22;1.40;;;20.50;83.40;;;;;;4970603;28;20411;-33
2023/07/31 07:26:56;;;;;;;3.58;1.80;;;21.30;83.30;;;;;;4970555;28;20134;-35
2023/07/31 07:29:22;;;;;;;2.72;1.60;;;21.20;73.20;;;;;;4953635;28;20094;-33
2023/07/31 07:31:49;;;;;;;3.17;1.40;;;;;;;;;;4950909;28;20082;-36
2023/07/31 07:34:16;;;;;;;2.47;1.70;;;20.50;82.90;;;;;;4951026;28;20139;-36
2023/07/31 07:36:43;;;;;;;3.80;2.00;;;20.30;82.10;;;;;;4957588;28;20168;-34
2023/07/31 07:39:10;;;;;;;3.38;1.90;;;21.00;69.40;;;;;;4970339;28;20138;-36
2023/07/31 07:41:38;;;;;;;3.47;1.80;;;;;;;;;;4970194;28;20130;-39
2023/07/31 07:44:06;;;;;;;4.05;1.80;;;20.70;82.50;;;;;;4967977;28;20134;-37
2023/07/31 07:46:32;;;;;;;3.17;1.90;;;20.10;82.30;;;;;;4962113;28;20129;-36
2023/07/31 07:48:59;;;;;;;3.60;1.67;;;20.40;83.20;;;;;;4970067;28;20129;-35
2023/07/31 07:51:26;;;;;;;3.35;2.10;;;;;;;;;;4967003;28;20134;-35
2023/07/31 07:53:53;;;;;;;6.18;2.22;;;21.50;83.10;;;;;;4956333;28;20138;-33
2023/07/31 07:56:20;;;;;;;4.13;1.90;;;21.50;83.00;;;;;;4951061;29;20058;-34
2023/07/31 07:58:49;;;;;;;3.88;1.80;;;20.80;75.10;;;;;;4950731;29;20574;-36
2023/07/31 08:01:17;;;;;;;4.30;2.20;;;21.20;82.90;;;;;;4959411;28;20579;-33
2023/07/31 08:03:43;;;;;;;2.30;1.67;;;20.90;68.20;;;;;;4969452;28;20090;-35
2023/07/31 08:06:11;;;;;;;3.00;1.90;;;;;;;;;;4970138;28;20082;-37
2023/07/31 08:08:37;;;;;;;3.05;1.73;;;20.90;69.80;;;;;;4970002;28;20146;-35
2023/07/31 08:11:04;;;;;;;3.15;1.85;;;;;;;;;;4969861;28;20095;-37
2023/07/31 08:13:31;;;;;;;4.22;2.08;;;20.70;82.60;;;;;;4962929;28;20126;-33
2023/07/31 08:15:58;;;;;;;3.45;1.80;;;;;;;;;;4961145;28;20126;-36
2023/07/31 08:18:26;;;;;;;3.20;1.90;;;20.80;66.80;;;;;;4969202;28;20097;-37
2023/07/31 08:20:53;;;;;;;3.45;1.77;;;;;;;;;;4963554;28;20126;-33
2023/07/31 08:23:20;;;;;;;4.20;1.70;;;21.10;82.90;;;;;;4958810;28;20125;-34
2023/07/31 08:25:49;;;;;;;4.22;1.90;;;;;;;;;;4955809;28;20469;-37
2023/07/31 08:28:16;;;;;;;4.85;2.00;;;20.60;83.00;;;;;;4959569;28;20122;-37
2023/07/31 08:30:43;;;;;;;3.92;1.90;;;20.50;79.80;;;;;;4959264;28;20202;-34
2023/07/31 08:33:09;;;;;;;2.88;1.70;;;21.80;75.60;;;;;;4959316;28;20508;-36
2023/07/31 08:35:37;;;;;;;3.55;1.85;;;20.80;83.60;;;;;;4956314;28;20102;-35
2023/07/31 08:38:04;;;;;;;2.90;1.90;;;;;;;;;;4953641;28;20134;-33
2023/07/31 08:40:32;;;;;;;2.70;1.80;;;;;;;;;;4949587;29;20227;-36
2023/07/31 08:43:02;;;;;;;3.05;1.80;;;;;;;;;;4949136;29;20569;-34
2023/07/31 08:45:29;;;;;;;3.22;1.70;;;20.20;82.40;;;;;;4952503;28;20042;-34
2023/07/31 08:47:56;;;;;;;3.60;1.98;;;;;;;;;;4957340;28;20150;-37
2023/07/31 08:50:23;;;;;;;2.70;1.83;;;;;;;;;;4949440;28;20051;-35
2023/07/31 08:52:51;;;;;;;2.97;1.77;;;20.80;66.90;;;;;;4949502;28;20131;-36
2023/07/31 08:55:23;;;;;;;3.95;2.10;;;19.70;70.20;;;;;;4949302;28;20134;-36
2023/07/31 08:57:50;;;;;;;3.05;1.70;;;;;;;;;;4950224;28;20126;-37
2023/07/31 09:00:17;;;;;;;2.90;1.67;;;21.20;72.80;;;;;;4952511;28;20130;-33
2023/07/31 09:02:46;;;;;;;3.58;1.80;;;20.80;66.90;;;;;;4952436;28;20471;-33
2023/07/31 09:05:12;;;;;;;3.13;1.80;;;21.30;80.60;;;;;;4966697;28;20125;-34
2023/07/31 09:07:39;;;;;;;4.07;2.10;;;20.80;83.70;;;;;;4972113;28;20082;-34
2023/07/31 09:10:08;;;;;;;3.05;2.00;;;20.80;66.90;;;;;;4954616;28;20162;-36
2023/07/31 09:12:35;;;;;;;4.72;1.80;;;20.50;83.10;;;;;;4952104;28;20623;-34
2023/07/31 09:15:02;;;;;;;2.88;1.77;;;20.80;82.90;;;;;;4961994;28;20078;-34
2023/07/31 09:17:31;;;;;;;4.13;1.60;;;20.80;67.00;;;;;;4971723;28;20072;-38
2023/07/31 09:19:59;;;;;;;2.17;1.60;;;;;;;;;;4971484;28;20055;-36
2023/07/31 09:22:35;;;;;;;2.58;1.60;;;20.80;83.70;;;;;;4966502;28;20496;-33
2023/07/31 09:25:14;;;;;;;2.33;1.50;;;20.70;83.70;;;;;;4961685;28;20138;-33
2023/07/31 09:27:51;;;;;;;4.25;1.90;;;20.80;67.20;;;;;;4960503;28;20078;-35
2023/07/31 09:30:18;;;;;;;2.70;1.60;;;20.90;83.00;;;;;;4960251;28;20130;-34
2023/07/31 09:32:45;;;;;;;2.58;1.88;;;20.50;83.70;;;;;;4966190;28;20173;-33
2023/07/31 09:35:20;;;;;;;6.28;1.75;;;21.20;73.10;;;;;;4964576;28;20126;-35
2023/07/31 09:37:50;;;;;;;4.75;1.73;;;21.30;83.70;;;;;;4960056;28;20070;-34
2023/07/31 09:40:27;;;;;;;3.35;1.80;;;20.90;83.10;;;;;;4976126;28;20424;-34
2023/07/31 09:42:55;;;;;;;3.25;1.65;;;20.60;83.20;;;;;;4961142;28;20053;-34
2023/07/31 09:45:22;;;;;;;3.28;1.42;;;;;;;;;;4960068;28;20122;-38
2023/07/31 09:47:49;;;;;;;2.90;1.60;;;;;;;;;;4974108;28;20228;-34
2023/07/31 09:50:16;;;;;;;3.53;1.40;;;20.50;83.10;;;;;;4962247;28;20129;-37
2023/07/31 09:52:43;;;;;;;5.45;1.90;;;;;;;;;;4962840;28;20061;-34
2023/07/31 09:55:10;;;;;;;3.08;1.70;;;21.00;78.30;;;;;;4961535;28;20130;-36
2023/07/31 09:57:39;;;;;;;3.80;1.60;;;20.90;83.80;;;;;;4961676;28;20146;-36
2023/07/31 10:00:09;;;;;;;1.90;1.33;;;20.90;67.70;;;;;;4964337;28;20129;-35
2023/07/31 10:02:36;;;;;;;2.25;1.38;;;20.90;84.30;;;;;;4975523;28;20790;-35
2023/07/31 10:05:03;;;;;;;3.30;1.55;;;20.70;83.80;;;;;;4968087;28;20075;-33
2023/07/31 10:07:30;;;;;;;2.17;1.35;;;;;;;;;;4952724;28;20047;-36
2023/07/31 10:09:57;;;;;;;4.30;1.50;;;20.80;84.40;;;;;;4955620;28;20058;-33
2023/07/31 10:12:24;;;;;;;2.13;1.45;;;;;;;;;;4964106;28;20131;-36
2023/07/31 10:14:52;;;;;;;2.30;1.30;;;20.90;67.90;;;;;;4957422;28;20126;-33
2023/07/31 10:17:19;;;;;;;2.30;1.60;;;21.40;84.20;;;;;;4952434;28;20480;-33
2023/07/31 10:19:46;;;;;;;1.65;1.23;;;21.00;83.70;;;;;;4957354;28;20122;-33
2023/07/31 10:22:13;;;;;;;3.60;1.30;;;20.70;78.80;;;;;;4952222;29;20471;-33
2023/07/31 10:24:39;;;;;;;2.60;1.35;;;21.10;83.70;;;;;;4952196;29;20480;-33
2023/07/31 10:27:06;;;;;;;2.10;1.40;;;20.80;84.00;;;;;;4957476;28;20126;-34
2023/07/31 10:29:33;;;;;;;2.58;1.20;;;21.00;79.50;;;;;;4969611;28;20125;-34
2023/07/31 10:32:01;;;;;;;1.48;1.08;;;20.90;68.00;;;;;;4965252;28;20106;-36
2023/07/31 10:34:28;;;;;;;1.90;1.30;;;21.30;84.00;;;;;;4965926;28;20134;-35
2023/07/31 10:37:26;;;;;;;3.97;1.40;;;21.20;68.20;;;;;;4970864;28;20059;-37
2023/07/31 10:40:00;;;;;;;2.30;1.30;;;19.90;83.20;;;;;;4968133;28;20055;-37
2023/07/31 10:42:34;;;;;;;2.95;1.23;;;20.00;68.90;;;;;;4961993;28;20230;-34
2023/07/31 10:45:01;;;;;;;1.80;1.30;;;21.10;83.80;;;;;;4956057;28;20134;-33
2023/07/31 10:47:29;;;;;;;1.52;1.20;;;21.20;84.00;;;;;;4965067;28;20046;-37
2023/07/31 10:50:18;;;;;;;2.28;1.40;;;20.90;68.20;;;;;;4951309;28;20138;-36
2023/07/31 10:52:47;;;;;;;4.22;1.20;;;20.90;68.30;;;;;;4951110;28;20070;-37
2023/07/31 10:55:24;;;;;;;2.63;1.20;;;20.30;73.80;;;;;;4951064;28;20101;-35
2023/07/31 10:57:50;;;;;;;2.80;1.70;;;20.90;84.40;;;;;;4950897;28;20078;-34
2023/07/31 11:00:22;;;;;;;1.90;1.08;;;20.60;77.20;;;;;;4951040;28;20140;-33
2023/07/31 11:03:03;;;;;;;5.03;1.33;;;20.90;84.90;;;;;;4966422;28;20133;-33
2023/07/31 11:05:47;;;;;;;1.60;1.20;;;20.80;74.10;;;;;;4969245;28;20082;-37
2023/07/31 11:08:19;;;;;;;1.58;1.20;;;20.90;68.20;;;;;;4970186;28;20122;-34
2023/07/31 11:10:45;;;;;;;1.50;1.10;;;20.70;80.10;;;;;;4962787;28;20420;-36
2023/07/31 11:13:12;;;;;;;2.33;1.27;;;21.10;82.50;;;;;;4959254;28;20144;-35
2023/07/31 11:15:39;;;;;;;2.88;0.90;;;20.30;84.30;;;;;;4956232;28;20134;-34
2023/07/31 11:18:08;;;;;;;1.42;1.10;;;21.00;68.20;;;;;;4958835;28;20043;-40
2023/07/31 11:20:35;;;;;;;1.33;1.10;;;21.40;73.00;;;;;;4957870;28;20510;-36
2023/07/31 11:23:02;;;;;;;2.72;1.10;;;;;;;;;;4960339;28;20527;-35
2023/07/31 11:25:31;;;;;;;1.52;1.10;;;21.00;68.30;;;;;;4966679;28;20518;-36
2023/07/31 11:27:58;;;;;;;1.90;1.17;;;21.10;84.40;;;;;;4959558;28;20046;-35
2023/07/31 11:30:25;;;;;;;2.05;1.02;;;;;;;;;;4966241;28;20145;-38
2023/07/31 11:32:51;;;;;;;2.03;1.10;;;20.60;84.70;;;;;;4968832;28;20129;-36
2023/07/31 11:35:20;;;;;;;1.23;1.02;;;20.50;84.10;;;;;;4955825;28;20058;-34
2023/07/31 11:37:47;;;;;;;1.00;0.90;;;;;;;;;;4968038;28;20126;-38
2023/07/31 11:40:14;;;;;;;1.73;1.10;;;21.00;84.80;;;;;;4968563;28;20089;-34
2023/07/31 11:42:41;;;;;;;1.48;1.20;;;;;;;;;;4968438;28;20485;-36
2023/07/31 11:45:08;;;;;;;2.15;1.10;;;21.10;68.10;;;;;;4968368;28;20578;-36
2023/07/31 11:47:35;;;;;;;2.58;1.10;;;;;;;;;;4949530;28;20122;-34
2023/07/31 11:50:03;;;;;;;4.82;1.35;;;20.90;71.80;;;;;;4950683;28;20465;-35
2023/07/31 11:52:32;;;;;;;1.85;1.23;;;21.30;67.80;;;;;;4967670;28;20082;-37
2023/07/31 11:54:59;;;;;;;3.13;1.17;;;;;;;;;;4969266;28;20129;-35
2023/07/31 11:57:26;;;;;;;3.13;1.63;;;21.70;84.00;;;;;;4958208;28;20496;-36
2023/07/31 11:59:52;;;;;;;3.55;1.20;;;22.20;84.40;;;;;;4954423;28;20086;-34
2023/07/31 12:02:20;;;;;;;2.80;1.30;;;;;;;;;;4949520;28;20480;-36
2023/07/31 12:04:48;;;;;;;2.35;1.10;;;;;;;;;;4952683;28;20047;-37
2023/07/31 12:07:14;;;;;;;2.10;1.05;;;21.70;83.00;;;;;;4959063;28;20097;-33
2023/07/31 12:09:53;;;;;;;2.65;1.10;;;21.40;77.30;;;;;;4949354;29;20093;-36
2023/07/31 12:12:21;;;;;;;1.70;1.17;;;21.50;67.10;;;;;;4949597;29;20043;-37
2023/07/31 12:14:48;;;;;;;1.02;0.82;;;;;;;;;;4949084;29;20130;-38
2023/07/31 12:17:15;;;;;;;1.85;1.13;;;;;;;;;;4949143;29;20079;-35
2023/07/31 12:19:42;;;;;;;3.67;1.30;;;;;;;;;;4954529;28;20100;-36
2023/07/31 12:22:12;;;;;;;2.28;1.00;;;21.40;68.80;;;;;;4957372;28;20136;-33
2023/07/31 12:24:40;;;;;;;1.40;1.05;;;21.60;80.50;;;;;;4961083;28;20393;-33
2023/07/31 12:27:11;;;;;;;2.25;0.90;;;21.30;83.00;;;;;;4955321;28;20048;-35
2023/07/31 12:29:39;;;;;;;2.35;1.08;;;21.60;66.90;;;;;;4949239;28;20085;-38
2023/07/31 12:32:06;;;;;;;2.58;1.13;;;21.40;83.20;;;;;;4950943;28;20059;-34
2023/07/31 12:34:33;;;;;;;1.80;0.93;;;21.50;73.40;;;;;;4959743;28;20058;-37
2023/07/31 12:37:00;;;;;;;2.15;0.90;;;;;;;;;;4959033;28;20437;-36
2023/07/31 12:39:27;;;;;;;1.50;1.00;;;;;;;;;;4963738;28;20078;-37
2023/07/31 12:41:54;;;;;;;1.83;0.90;;;21.10;82.30;;;;;;4972049;28;20134;-34
2023/07/31 12:44:22;;;;;;;1.33;0.82;;;21.50;66.90;;;;;;4970600;28;20141;-36
2023/07/31 12:46:49;;;;;;;1.77;1.13;;;;;;;;;;4958131;28;20055;-35
2023/07/31 12:49:16;;;;;;;1.95;1.02;;;22.40;83.50;;;;;;4952428;28;20130;-34
2023/07/31 12:51:42;;;;;;;2.45;0.90;;;20.90;83.10;;;;;;4952774;28;20126;-37
2023/07/31 12:54:10;;;;;;;1.70;0.95;;;;;;;;;;4959028;28;20129;-35
2023/07/31 12:56:36;;;;;;;1.17;0.98;;;21.40;83.20;;;;;;4953622;28;20074;-37
2023/07/31 12:59:03;;;;;;;2.80;1.00;;;;;;;;;;4952509;28;20459;-37
2023/07/31 13:01:32;;;;;;;1.85;0.75;;;21.80;84.00;;;;;;4952498;28;20138;-35
2023/07/31 13:03:59;;;;;;;1.83;0.80;;;;;;;;;;4955694;28;20048;-39
2023/07/31 13:06:26;;;;;;;1.20;0.80;;;21.40;68.20;;;;;;4971847;28;20055;-36
2023/07/31 13:08:52;;;;;;;1.48;0.90;;;21.30;83.20;;;;;;4970931;28;20548;-37
2023/07/31 13:11:19;;;;;;;1.63;0.75;;;21.40;71.70;;;;;;4967428;28;20125;-32
2023/07/31 13:13:46;;;;;;;2.15;0.95;;;21.50;69.70;;;;;;4952166;28;20142;-35
2023/07/31 13:16:13;;;;;;;1.20;0.90;;;;;;;;;;4959023;28;20456;-33